Grand Canyon National Park Airport
KGCN : now visible

Airfield :











YOU CAN JOIN US ON...

 
LOGIN :

Register | Disclaimer

   EN    FR    IT 

 









Legend :    VFR   Marginal VFR   IFR   Intensive IFR   Very Intensive IFR
Visi :
Ceiling :
>= 8 km
>= 3000ft
5 to 8 km
1000 to 3000 ft
1500m to 5 km
500 to 1000 ft
800 to 1500m
200 to 500 ft
< 800m
< 200 ft
Symbols :   Thunderstorms  Fog  Heavy snow  Heavy precipitations  Wind > 20 kt






- Airport Elevation : 6609 ft
- IATA code : GCN


KGCN - Grand Canyon National Park

CURRENT METAR :
  • 081754Z 13010G17KT 10SM OVC070 13/M03 A3011 RMK AO2 SLP160 T01281033 10139 21044 58007

EXPIRED METARs :
  • 081654Z 14017G24KT 10SM SCT065 BKN080 13/M03 A3012 RMK AO2 SLP158 T01281033
  • 081554Z 15010G19KT 10SM FEW070 12/M02 A3013 RMK AO2 SLP159 T01171022

TAF KGCN
Valid from the 08 at 18:00 until the 09 at 18:00 UTC


081738Z 0818/0918 15015G26KT P6SM SCT060 BKN080
FM090300 18009KT P6SM -SHRA SCT010 BKN025
TEMPO 0903/0907 3SM -SHRASN BR OVC010



MET'MAP, your aeronautical weather chart ! - Copyright ORBIFLY December 2007 - Disclaimer

ORBIFLY MET'MAP TEAM :

Programming & Development : Alexandra Zaïnal
Concept & original design : Baudouin d'Aumeries
Assistance for programming : Marc-Olivier Méhu
Technical & hardware support : Manuel Goepfert

Contact : metmap@orbifly.com




SOURCES & CREDITS :

   NOAA       Earth
Advisory